sensor_id;sensor_type;location;lat;lon;timestamp;temperature;humidity
59660;DHT22;45534;52.690;6.268;2022-11-14T00:02:05;6.10;99.90
59660;DHT22;45534;52.690;6.268;2022-11-14T00:04:31;6.20;99.90
59660;DHT22;45534;52.690;6.268;2022-11-14T00:06:56;6.20;99.90
59660;DHT22;45534;52.690;6.268;2022-11-14T00:09:26;6.20;99.90
59660;DHT22;45534;52.690;6.268;2022-11-14T00:11:52;6.20;99.90
59660;DHT22;45534;52.690;6.268;2022-11-14T00:14:18;6.20;99.90
59660;DHT22;45534;52.690;6.268;2022-11-14T00:16:44;6.20;99.90
59660;DHT22;45534;52.690;6.268;2022-11-14T00:19:10;6.20;99.90
59660;DHT22;45534;52.690;6.268;2022-11-14T00:21:35;6.20;99.90
59660;DHT22;45534;52.690;6.268;2022-11-14T00:24:01;6.20;99.90
59660;DHT22;45534;52.690;6.268;2022-11-14T00:26:27;6.20;99.90
59660;DHT22;45534;52.690;6.268;2022-11-14T00:28:53;6.30;99.90
59660;DHT22;45534;52.690;6.268;2022-11-14T00:31:19;6.30;99.90
59660;DHT22;45534;52.690;6.268;2022-11-14T00:33:45;6.30;99.90
59660;DHT22;45534;52.690;6.268;2022-11-14T00:36:11;6.30;99.90
59660;DHT22;45534;52.690;6.268;2022-11-14T00:38:36;6.30;99.90
59660;DHT22;45534;52.690;6.268;2022-11-14T00:41:02;6.30;99.90
59660;DHT22;45534;52.690;6.268;2022-11-14T00:43:28;6.40;99.90
59660;DHT22;45534;52.690;6.268;2022-11-14T00:45:53;6.40;99.90
59660;DHT22;45534;52.690;6.268;2022-11-14T00:48:19;6.30;99.90
59660;DHT22;45534;52.690;6.268;2022-11-14T00:50:44;6.40;99.90
59660;DHT22;45534;52.690;6.268;2022-11-14T00:53:10;6.40;99.90
59660;DHT22;45534;52.690;6.268;2022-11-14T00:55:36;6.40;99.90
59660;DHT22;45534;52.690;6.268;2022-11-14T00:58:02;6.40;99.90
59660;DHT22;45534;52.690;6.268;2022-11-14T01:00:27;6.40;99.90
59660;DHT22;45534;52.690;6.268;2022-11-14T01:02:53;6.40;99.90
59660;DHT22;45534;52.690;6.268;2022-11-14T01:05:22;6.40;99.90
59660;DHT22;45534;52.690;6.268;2022-11-14T01:07:48;6.40;99.90
59660;DHT22;45534;52.690;6.268;2022-11-14T01:10:15;6.40;99.90
59660;DHT22;45534;52.690;6.268;2022-11-14T01:12:40;6.40;99.90
59660;DHT22;45534;52.690;6.268;2022-11-14T01:15:06;6.40;99.90
59660;DHT22;45534;52.690;6.268;2022-11-14T01:17:32;6.40;99.90
59660;DHT22;45534;52.690;6.268;2022-11-14T01:19:58;6.40;99.90
59660;DHT22;45534;52.690;6.268;2022-11-14T01:22:24;6.40;99.90
59660;DHT22;45534;52.690;6.268;2022-11-14T01:24:50;6.40;99.90
59660;DHT22;45534;52.690;6.268;2022-11-14T01:27:16;6.40;99.90
59660;DHT22;45534;52.690;6.268;2022-11-14T01:29:44;6.40;99.90
59660;DHT22;45534;52.690;6.268;2022-11-14T01:32:09;6.40;99.90
59660;DHT22;45534;52.690;6.268;2022-11-14T01:34:35;6.40;99.90
59660;DHT22;45534;52.690;6.268;2022-11-14T01:37:01;6.30;99.90
59660;DHT22;45534;52.690;6.268;2022-11-14T01:39:26;6.30;99.90
59660;DHT22;45534;52.690;6.268;2022-11-14T01:41:52;6.30;99.90
59660;DHT22;45534;52.690;6.268;2022-11-14T01:47:03;6.30;99.90
59660;DHT22;45534;52.690;6.268;2022-11-14T01:49:43;6.20;99.90
59660;DHT22;45534;52.690;6.268;2022-11-14T01:52:16;6.20;99.90
59660;DHT22;45534;52.690;6.268;2022-11-14T01:54:45;6.20;99.90
59660;DHT22;45534;52.690;6.268;2022-11-14T01:57:14;6.10;99.90
59660;DHT22;45534;52.690;6.268;2022-11-14T01:59:43;6.10;99.90
59660;DHT22;45534;52.690;6.268;2022-11-14T02:02:17;6.00;99.90
59660;DHT22;45534;52.690;6.268;2022-11-14T02:04:49;6.00;99.90
59660;DHT22;45534;52.690;6.268;2022-11-14T02:07:16;5.90;99.90
59660;DHT22;45534;52.690;6.268;2022-11-14T02:09:45;5.90;99.90
59660;DHT22;45534;52.690;6.268;2022-11-14T02:12:13;5.80;99.90
59660;DHT22;45534;52.690;6.268;2022-11-14T02:14:40;5.80;99.90
59660;DHT22;45534;52.690;6.268;2022-11-14T02:17:07;5.70;99.90
59660;DHT22;45534;52.690;6.268;2022-11-14T02:22:07;5.60;99.90
59660;DHT22;45534;52.690;6.268;2022-11-14T02:24:33;5.60;99.90
59660;DHT22;45534;52.690;6.268;2022-11-14T02:26:58;5.60;99.90
59660;DHT22;45534;52.690;6.268;2022-11-14T02:29:24;5.60;99.90
59660;DHT22;45534;52.690;6.268;2022-11-14T02:31:49;5.60;99.90
59660;DHT22;45534;52.690;6.268;2022-11-14T02:34:15;5.60;99.90
59660;DHT22;45534;52.690;6.268;2022-11-14T02:36:44;5.60;99.90
59660;DHT22;45534;52.690;6.268;2022-11-14T02:39:10;5.50;99.90
59660;DHT22;45534;52.690;6.268;2022-11-14T02:41:35;5.50;99.90
59660;DHT22;45534;52.690;6.268;2022-11-14T02:44:01;5.50;99.90
59660;DHT22;45534;52.690;6.268;2022-11-14T02:46:27;5.50;99.90
59660;DHT22;45534;52.690;6.268;2022-11-14T02:48:52;5.50;99.90
59660;DHT22;45534;52.690;6.268;2022-11-14T02:51:18;5.50;99.90
59660;DHT22;45534;52.690;6.268;2022-11-14T02:53:44;5.50;99.90
59660;DHT22;45534;52.690;6.268;2022-11-14T02:56:09;5.50;99.90
59660;DHT22;45534;52.690;6.268;2022-11-14T02:58:35;5.50;99.90
59660;DHT22;45534;52.690;6.268;2022-11-14T03:01:00;5.40;99.90
59660;DHT22;45534;52.690;6.268;2022-11-14T03:03:26;5.40;99.90
59660;DHT22;45534;52.690;6.268;2022-11-14T03:05:52;5.40;99.90
59660;DHT22;45534;52.690;6.268;2022-11-14T03:08:22;5.30;99.90
59660;DHT22;45534;52.690;6.268;2022-11-14T03:10:48;5.30;99.90
59660;DHT22;45534;52.690;6.268;2022-11-14T03:13:14;5.30;99.90
59660;DHT22;45534;52.690;6.268;2022-11-14T03:15:39;5.20;99.90
59660;DHT22;45534;52.690;6.268;2022-11-14T03:18:05;5.20;99.90
59660;DHT22;45534;52.690;6.268;2022-11-14T03:20:31;5.20;99.90
59660;DHT22;45534;52.690;6.268;2022-11-14T03:22:56;5.20;99.90
59660;DHT22;45534;52.690;6.268;2022-11-14T03:25:22;5.20;99.90
59660;DHT22;45534;52.690;6.268;2022-11-14T03:27:47;5.30;99.90
59660;DHT22;45534;52.690;6.268;2022-11-14T03:30:13;5.30;99.90
59660;DHT22;45534;52.690;6.268;2022-11-14T03:32:39;5.30;99.90
59660;DHT22;45534;52.690;6.268;2022-11-14T03:35:05;5.40;99.90
59660;DHT22;45534;52.690;6.268;2022-11-14T03:37:31;5.40;99.90
59660;DHT22;45534;52.690;6.268;2022-11-14T03:39:56;5.40;99.90
59660;DHT22;45534;52.690;6.268;2022-11-14T03:42:22;5.50;99.90
59660;DHT22;45534;52.690;6.268;2022-11-14T03:44:48;5.50;99.90
59660;DHT22;45534;52.690;6.268;2022-11-14T03:47:13;5.50;99.90
59660;DHT22;45534;52.690;6.268;2022-11-14T03:49:39;5.50;99.90
59660;DHT22;45534;52.690;6.268;2022-11-14T03:52:05;5.50;99.90
59660;DHT22;45534;52.690;6.268;2022-11-14T03:54:31;5.50;99.90
59660;DHT22;45534;52.690;6.268;2022-11-14T03:56:56;5.50;99.90
59660;DHT22;45534;52.690;6.268;2022-11-14T03:59:22;5.50;99.90
59660;DHT22;45534;52.690;6.268;2022-11-14T04:01:47;5.40;99.90
59660;DHT22;45534;52.690;6.268;2022-11-14T04:04:13;5.40;99.90
59660;DHT22;45534;52.690;6.268;2022-11-14T04:06:39;5.40;99.90
59660;DHT22;45534;52.690;6.268;2022-11-14T04:09:05;5.40;99.90
59660;DHT22;45534;52.690;6.268;2022-11-14T04:11:31;5.40;99.90
59660;DHT22;45534;52.690;6.268;2022-11-14T04:13:57;5.30;99.90
59660;DHT22;45534;52.690;6.268;2022-11-14T04:16:22;5.30;99.90
59660;DHT22;45534;52.690;6.268;2022-11-14T04:18:48;5.30;99.90
59660;DHT22;45534;52.690;6.268;2022-11-14T04:21:13;5.30;99.90
59660;DHT22;45534;52.690;6.268;2022-11-14T04:23:39;5.30;99.90
59660;DHT22;45534;52.690;6.268;2022-11-14T04:26:05;5.30;99.90
59660;DHT22;45534;52.690;6.268;2022-11-14T04:28:30;5.30;99.90
59660;DHT22;45534;52.690;6.268;2022-11-14T04:30:56;5.20;99.90
59660;DHT22;45534;52.690;6.268;2022-11-14T04:33:22;5.20;99.90
59660;DHT22;45534;52.690;6.268;2022-11-14T04:35:47;5.20;99.90
59660;DHT22;45534;52.690;6.268;2022-11-14T04:38:13;5.20;99.90
59660;DHT22;45534;52.690;6.268;2022-11-14T04:40:39;5.20;99.90
59660;DHT22;45534;52.690;6.268;2022-11-14T04:43:04;5.20;99.90
59660;DHT22;45534;52.690;6.268;2022-11-14T04:45:30;5.30;99.90
59660;DHT22;45534;52.690;6.268;2022-11-14T04:47:55;5.20;99.90
59660;DHT22;45534;52.690;6.268;2022-11-14T04:50:21;5.30;99.90
59660;DHT22;45534;52.690;6.268;2022-11-14T04:52:51;5.30;99.90
59660;DHT22;45534;52.690;6.268;2022-11-14T04:55:17;5.30;99.90
59660;DHT22;45534;52.690;6.268;2022-11-14T04:57:42;5.30;99.90
59660;DHT22;45534;52.690;6.268;2022-11-14T05:00:09;5.30;99.90
59660;DHT22;45534;52.690;6.268;2022-11-14T05:02:34;5.30;99.90
59660;DHT22;45534;52.690;6.268;2022-11-14T05:05:00;5.30;99.90
59660;DHT22;45534;52.690;6.268;2022-11-14T05:07:26;5.40;99.90
59660;DHT22;45534;52.690;6.268;2022-11-14T05:09:51;5.40;99.90
59660;DHT22;45534;52.690;6.268;2022-11-14T05:12:17;5.40;99.90
59660;DHT22;45534;52.690;6.268;2022-11-14T05:14:43;5.40;99.90
59660;DHT22;45534;52.690;6.268;2022-11-14T05:17:08;5.40;99.90
59660;DHT22;45534;52.690;6.268;2022-11-14T05:19:34;5.40;99.90
59660;DHT22;45534;52.690;6.268;2022-11-14T05:22:00;5.40;99.90
59660;DHT22;45534;52.690;6.268;2022-11-14T05:24:25;5.40;99.90
59660;DHT22;45534;52.690;6.268;2022-11-14T05:26:53;5.40;99.90
59660;DHT22;45534;52.690;6.268;2022-11-14T05:29:18;5.50;99.90
59660;DHT22;45534;52.690;6.268;2022-11-14T05:31:44;5.40;99.90
59660;DHT22;45534;52.690;6.268;2022-11-14T05:34:10;5.40;99.90
59660;DHT22;45534;52.690;6.268;2022-11-14T05:36:35;5.40;99.90
59660;DHT22;45534;52.690;6.268;2022-11-14T05:39:01;5.40;99.90
59660;DHT22;45534;52.690;6.268;2022-11-14T05:41:27;5.40;99.90
59660;DHT22;45534;52.690;6.268;2022-11-14T05:43:52;5.40;99.90
59660;DHT22;45534;52.690;6.268;2022-11-14T05:46:18;5.40;99.90
59660;DHT22;45534;52.690;6.268;2022-11-14T05:48:43;5.50;99.90
59660;DHT22;45534;52.690;6.268;2022-11-14T05:51:12;5.50;99.90
59660;DHT22;45534;52.690;6.268;2022-11-14T05:53:39;5.40;99.90
59660;DHT22;45534;52.690;6.268;2022-11-14T05:56:09;5.50;99.90
59660;DHT22;45534;52.690;6.268;2022-11-14T05:58:35;5.50;99.90
59660;DHT22;45534;52.690;6.268;2022-11-14T06:03:37;5.50;99.90
59660;DHT22;45534;52.690;6.268;2022-11-14T06:06:05;5.50;99.90
59660;DHT22;45534;52.690;6.268;2022-11-14T06:08:32;5.50;99.90
59660;DHT22;45534;52.690;6.268;2022-11-14T06:11:05;5.50;99.90
59660;DHT22;45534;52.690;6.268;2022-11-14T06:13:32;5.50;99.90
59660;DHT22;45534;52.690;6.268;2022-11-14T06:16:02;5.50;99.90
59660;DHT22;45534;52.690;6.268;2022-11-14T06:18:29;5.50;99.90
59660;DHT22;45534;52.690;6.268;2022-11-14T06:21:06;5.40;99.90
59660;DHT22;45534;52.690;6.268;2022-11-14T06:23:32;5.40;99.90
59660;DHT22;45534;52.690;6.268;2022-11-14T06:25:59;5.40;99.90
59660;DHT22;45534;52.690;6.268;2022-11-14T06:28:25;5.40;99.90
59660;DHT22;45534;52.690;6.268;2022-11-14T06:30:51;5.30;99.90
59660;DHT22;45534;52.690;6.268;2022-11-14T06:33:20;5.30;99.90
59660;DHT22;45534;52.690;6.268;2022-11-14T06:35:46;5.30;99.90
59660;DHT22;45534;52.690;6.268;2022-11-14T06:38:11;5.30;99.90
59660;DHT22;45534;52.690;6.268;2022-11-14T06:40:37;5.40;99.90
59660;DHT22;45534;52.690;6.268;2022-11-14T06:43:03;5.30;99.90
59660;DHT22;45534;52.690;6.268;2022-11-14T06:45:28;5.30;99.90
59660;DHT22;45534;52.690;6.268;2022-11-14T06:47:57;5.30;99.90
59660;DHT22;45534;52.690;6.268;2022-11-14T06:50:24;5.30;99.90
59660;DHT22;45534;52.690;6.268;2022-11-14T06:52:50;5.30;99.90
59660;DHT22;45534;52.690;6.268;2022-11-14T06:55:16;5.20;99.90
59660;DHT22;45534;52.690;6.268;2022-11-14T06:57:41;5.20;99.90
59660;DHT22;45534;52.690;6.268;2022-11-14T07:00:07;5.20;99.90
59660;DHT22;45534;52.690;6.268;2022-11-14T07:02:33;5.20;99.90
59660;DHT22;45534;52.690;6.268;2022-11-14T07:04:59;5.20;99.90
59660;DHT22;45534;52.690;6.268;2022-11-14T07:07:24;5.20;99.90
59660;DHT22;45534;52.690;6.268;2022-11-14T07:09:50;5.20;99.90
59660;DHT22;45534;52.690;6.268;2022-11-14T07:12:16;5.10;99.90
59660;DHT22;45534;52.690;6.268;2022-11-14T07:14:41;5.10;99.90
59660;DHT22;45534;52.690;6.268;2022-11-14T07:17:07;5.10;99.90
59660;DHT22;45534;52.690;6.268;2022-11-14T07:19:33;5.00;99.90
59660;DHT22;45534;52.690;6.268;2022-11-14T07:21:58;5.00;99.90
59660;DHT22;45534;52.690;6.268;2022-11-14T07:24:24;5.00;99.90
59660;DHT22;45534;52.690;6.268;2022-11-14T07:26:50;4.90;99.90
59660;DHT22;45534;52.690;6.268;2022-11-14T07:29:16;4.90;99.90
59660;DHT22;45534;52.690;6.268;2022-11-14T07:31:41;4.90;99.90
59660;DHT22;45534;52.690;6.268;2022-11-14T07:34:07;4.90;99.90
59660;DHT22;45534;52.690;6.268;2022-11-14T07:36:33;4.80;99.90
59660;DHT22;45534;52.690;6.268;2022-11-14T07:38:59;4.80;99.90
59660;DHT22;45534;52.690;6.268;2022-11-14T07:41:24;4.80;99.90
59660;DHT22;45534;52.690;6.268;2022-11-14T07:43:50;4.80;99.90
59660;DHT22;45534;52.690;6.268;2022-11-14T07:46:17;4.80;99.90
59660;DHT22;45534;52.690;6.268;2022-11-14T07:48:43;4.80;99.90
59660;DHT22;45534;52.690;6.268;2022-11-14T07:51:14;4.80;99.90
59660;DHT22;45534;52.690;6.268;2022-11-14T07:53:41;4.90;99.90
59660;DHT22;45534;52.690;6.268;2022-11-14T07:56:08;4.90;99.90
59660;DHT22;45534;52.690;6.268;2022-11-14T07:58:37;4.90;99.90
59660;DHT22;45534;52.690;6.268;2022-11-14T08:01:05;4.90;99.90
59660;DHT22;45534;52.690;6.268;2022-11-14T08:03:31;4.90;99.90
59660;DHT22;45534;52.690;6.268;2022-11-14T08:06:05;4.90;99.90
59660;DHT22;45534;52.690;6.268;2022-11-14T08:08:31;4.90;99.90
59660;DHT22;45534;52.690;6.268;2022-11-14T08:10:58;5.00;99.90
59660;DHT22;45534;52.690;6.268;2022-11-14T08:13:24;5.00;99.90
59660;DHT22;45534;52.690;6.268;2022-11-14T08:15:51;5.00;99.90
59660;DHT22;45534;52.690;6.268;2022-11-14T08:18:16;5.10;99.90
59660;DHT22;45534;52.690;6.268;2022-11-14T08:20:42;5.10;99.90
59660;DHT22;45534;52.690;6.268;2022-11-14T08:23:09;5.10;99.90
59660;DHT22;45534;52.690;6.268;2022-11-14T08:25:34;5.10;99.90
59660;DHT22;45534;52.690;6.268;2022-11-14T08:28:00;5.20;99.90
59660;DHT22;45534;52.690;6.268;2022-11-14T08:30:26;5.20;99.90
59660;DHT22;45534;52.690;6.268;2022-11-14T08:32:52;5.20;99.90
59660;DHT22;45534;52.690;6.268;2022-11-14T08:35:17;5.30;99.90
59660;DHT22;45534;52.690;6.268;2022-11-14T08:37:43;5.30;99.90
59660;DHT22;45534;52.690;6.268;2022-11-14T08:40:09;5.30;99.90
59660;DHT22;45534;52.690;6.268;2022-11-14T08:42:35;5.40;99.90
59660;DHT22;45534;52.690;6.268;2022-11-14T08:45:01;5.40;99.90
59660;DHT22;45534;52.690;6.268;2022-11-14T08:47:27;5.40;99.90
59660;DHT22;45534;52.690;6.268;2022-11-14T08:49:52;5.50;99.90
59660;DHT22;45534;52.690;6.268;2022-11-14T08:52:18;5.50;99.90
59660;DHT22;45534;52.690;6.268;2022-11-14T08:54:43;5.50;99.90
59660;DHT22;45534;52.690;6.268;2022-11-14T08:57:10;5.60;99.90
59660;DHT22;45534;52.690;6.268;2022-11-14T08:59:39;5.60;99.90
59660;DHT22;45534;52.690;6.268;2022-11-14T09:02:05;5.60;99.90
59660;DHT22;45534;52.690;6.268;2022-11-14T09:04:31;5.70;99.90
59660;DHT22;45534;52.690;6.268;2022-11-14T09:06:56;5.70;99.90
59660;DHT22;45534;52.690;6.268;2022-11-14T09:09:23;5.80;99.90
59660;DHT22;45534;52.690;6.268;2022-11-14T09:11:49;5.80;99.90
59660;DHT22;45534;52.690;6.268;2022-11-14T09:14:14;5.80;99.90
59660;DHT22;45534;52.690;6.268;2022-11-14T09:16:40;5.80;99.90
59660;DHT22;45534;52.690;6.268;2022-11-14T09:19:06;5.90;99.90
59660;DHT22;45534;52.690;6.268;2022-11-14T09:21:31;5.90;99.90
59660;DHT22;45534;52.690;6.268;2022-11-14T09:23:57;5.90;99.90
59660;DHT22;45534;52.690;6.268;2022-11-14T09:26:23;6.00;99.90
59660;DHT22;45534;52.690;6.268;2022-11-14T09:28:48;6.00;99.90
59660;DHT22;45534;52.690;6.268;2022-11-14T09:31:14;6.00;99.90
59660;DHT22;45534;52.690;6.268;2022-11-14T09:33:40;6.10;99.90
59660;DHT22;45534;52.690;6.268;2022-11-14T09:36:09;6.10;99.90
59660;DHT22;45534;52.690;6.268;2022-11-14T09:38:35;6.10;99.90
59660;DHT22;45534;52.690;6.268;2022-11-14T09:41:18;6.20;99.90
59660;DHT22;45534;52.690;6.268;2022-11-14T09:46:21;6.30;99.90
59660;DHT22;45534;52.690;6.268;2022-11-14T09:48:48;6.30;99.90
59660;DHT22;45534;52.690;6.268;2022-11-14T09:51:19;6.40;99.90
59660;DHT22;45534;52.690;6.268;2022-11-14T09:56:33;6.50;99.90
59660;DHT22;45534;52.690;6.268;2022-11-14T09:58:59;6.60;99.90
59660;DHT22;45534;52.690;6.268;2022-11-14T10:01:35;6.60;99.90
59660;DHT22;45534;52.690;6.268;2022-11-14T10:12:56;6.70;99.90
59660;DHT22;45534;52.690;6.268;2022-11-14T10:15:45;6.80;99.90
59660;DHT22;45534;52.690;6.268;2022-11-14T10:24:12;6.90;99.90
59660;DHT22;45534;52.690;6.268;2022-11-14T10:26:59;7.00;99.90
59660;DHT22;45534;52.690;6.268;2022-11-14T10:30:28;7.00;99.90
59660;DHT22;45534;52.690;6.268;2022-11-14T10:32:44;7.10;99.90
59660;DHT22;45534;52.690;6.268;2022-11-14T10:35:40;7.20;99.90
59660;DHT22;45534;52.690;6.268;2022-11-14T10:40:44;7.40;99.90
59660;DHT22;45534;52.690;6.268;2022-11-14T10:43:24;7.50;99.90
59660;DHT22;45534;52.690;6.268;2022-11-14T10:46:15;7.60;99.90
59660;DHT22;45534;52.690;6.268;2022-11-14T10:48:43;7.70;99.90
59660;DHT22;45534;52.690;6.268;2022-11-14T10:51:25;7.80;99.90
59660;DHT22;45534;52.690;6.268;2022-11-14T10:54:09;8.00;99.90
59660;DHT22;45534;52.690;6.268;2022-11-14T10:56:50;8.10;99.90
59660;DHT22;45534;52.690;6.268;2022-11-14T10:59:16;8.10;99.90
59660;DHT22;45534;52.690;6.268;2022-11-14T11:01:53;8.20;99.90
59660;DHT22;45534;52.690;6.268;2022-11-14T11:04:33;8.20;99.90
59660;DHT22;45534;52.690;6.268;2022-11-14T11:09:36;8.40;99.90
59660;DHT22;45534;52.690;6.268;2022-11-14T11:12:23;8.60;99.90
59660;DHT22;45534;52.690;6.268;2022-11-14T11:15:14;8.70;99.90
59660;DHT22;45534;52.690;6.268;2022-11-14T11:17:56;8.90;99.90
59660;DHT22;45534;52.690;6.268;2022-11-14T11:20:37;9.10;99.90
59660;DHT22;45534;52.690;6.268;2022-11-14T11:23:04;9.30;99.90
59660;DHT22;45534;52.690;6.268;2022-11-14T11:25:32;9.80;99.90
59660;DHT22;45534;52.690;6.268;2022-11-14T11:28:12;10.10;99.90
59660;DHT22;45534;52.690;6.268;2022-11-14T11:30:38;10.40;99.90
59660;DHT22;45534;52.690;6.268;2022-11-14T11:33:23;10.60;99.90
59660;DHT22;45534;52.690;6.268;2022-11-14T11:35:50;10.70;99.90
59660;DHT22;45534;52.690;6.268;2022-11-14T11:38:18;10.70;99.90
59660;DHT22;45534;52.690;6.268;2022-11-14T11:40:46;10.90;99.90
59660;DHT22;45534;52.690;6.268;2022-11-14T11:45:45;11.20;99.90
59660;DHT22;45534;52.690;6.268;2022-11-14T11:48:22;11.40;99.90
59660;DHT22;45534;52.690;6.268;2022-11-14T11:50:48;11.40;99.90
59660;DHT22;45534;52.690;6.268;2022-11-14T11:53:33;11.50;99.90
59660;DHT22;45534;52.690;6.268;2022-11-14T11:56:03;11.70;99.90
59660;DHT22;45534;52.690;6.268;2022-11-14T11:58:45;11.80;99.90
59660;DHT22;45534;52.690;6.268;2022-11-14T12:01:12;11.90;99.90
59660;DHT22;45534;52.690;6.268;2022-11-14T12:03:41;12.00;99.90
59660;DHT22;45534;52.690;6.268;2022-11-14T12:06:14;12.10;99.90
59660;DHT22;45534;52.690;6.268;2022-11-14T12:11:34;12.40;99.90
59660;DHT22;45534;52.690;6.268;2022-11-14T12:17:08;12.40;99.90
59660;DHT22;45534;52.690;6.268;2022-11-14T12:28:57;12.40;99.90
59660;DHT22;45534;52.690;6.268;2022-11-14T12:31:29;12.50;99.90
59660;DHT22;45534;52.690;6.268;2022-11-14T12:33:58;12.70;99.90
59660;DHT22;45534;52.690;6.268;2022-11-14T12:36:31;12.80;99.90
59660;DHT22;45534;52.690;6.268;2022-11-14T12:38:58;13.00;99.90
59660;DHT22;45534;52.690;6.268;2022-11-14T12:41:31;13.20;99.90
59660;DHT22;45534;52.690;6.268;2022-11-14T12:49:56;13.20;99.90
59660;DHT22;45534;52.690;6.268;2022-11-14T12:52:44;13.30;99.90
59660;DHT22;45534;52.690;6.268;2022-11-14T13:00:27;13.70;99.90
59660;DHT22;45534;52.690;6.268;2022-11-14T13:06:06;13.70;99.90
59660;DHT22;45534;52.690;6.268;2022-11-14T13:14:20;14.20;99.90
59660;DHT22;45534;52.690;6.268;2022-11-14T13:20:28;14.40;99.90
59660;DHT22;45534;52.690;6.268;2022-11-14T13:23:58;14.40;99.90
59660;DHT22;45534;52.690;6.268;2022-11-14T13:33:49;14.20;99.90
59660;DHT22;45534;52.690;6.268;2022-11-14T13:39:21;14.30;99.90
59660;DHT22;45534;52.690;6.268;2022-11-14T13:50:35;13.80;99.90
59660;DHT22;45534;52.690;6.268;2022-11-14T13:53:09;13.70;99.90
59660;DHT22;45534;52.690;6.268;2022-11-14T13:55:50;13.60;99.90
59660;DHT22;45534;52.690;6.268;2022-11-14T14:01:35;13.40;99.90
59660;DHT22;45534;52.690;6.268;2022-11-14T14:04:07;13.50;99.90
59660;DHT22;45534;52.690;6.268;2022-11-14T14:09:32;13.70;99.90
59660;DHT22;45534;52.690;6.268;2022-11-14T14:20:09;12.50;99.90
59660;DHT22;45534;52.690;6.268;2022-11-14T14:22:48;11.90;99.90
59660;DHT22;45534;52.690;6.268;2022-11-14T14:25:25;11.30;99.90
59660;DHT22;45534;52.690;6.268;2022-11-14T14:28:19;10.90;99.90
59660;DHT22;45534;52.690;6.268;2022-11-14T14:31:03;10.50;99.90
59660;DHT22;45534;52.690;6.268;2022-11-14T14:33:47;10.20;99.90
59660;DHT22;45534;52.690;6.268;2022-11-14T14:36:25;10.10;99.90
59660;DHT22;45534;52.690;6.268;2022-11-14T14:39:14;9.90;99.90
59660;DHT22;45534;52.690;6.268;2022-11-14T14:41:41;9.80;99.90
59660;DHT22;45534;52.690;6.268;2022-11-14T14:46:52;9.70;99.90
59660;DHT22;45534;52.690;6.268;2022-11-14T14:49:26;9.70;99.90
59660;DHT22;45534;52.690;6.268;2022-11-14T14:51:53;9.60;99.90
59660;DHT22;45534;52.690;6.268;2022-11-14T14:54:26;9.60;99.90
59660;DHT22;45534;52.690;6.268;2022-11-14T14:56:58;9.50;99.90
59660;DHT22;45534;52.690;6.268;2022-11-14T14:59:29;9.50;99.90
59660;DHT22;45534;52.690;6.268;2022-11-14T15:01:56;9.50;99.90
59660;DHT22;45534;52.690;6.268;2022-11-14T15:04:25;9.40;99.90
59660;DHT22;45534;52.690;6.268;2022-11-14T15:06:52;9.40;99.90
59660;DHT22;45534;52.690;6.268;2022-11-14T15:09:27;9.40;99.90
59660;DHT22;45534;52.690;6.268;2022-11-14T15:12:00;9.30;99.90
59660;DHT22;45534;52.690;6.268;2022-11-14T15:14:30;9.30;99.90
59660;DHT22;45534;52.690;6.268;2022-11-14T15:16:57;9.20;99.90
59660;DHT22;45534;52.690;6.268;2022-11-14T15:19:27;9.30;99.90
59660;DHT22;45534;52.690;6.268;2022-11-14T15:22:01;9.20;99.90
59660;DHT22;45534;52.690;6.268;2022-11-14T15:24:27;9.20;99.90
59660;DHT22;45534;52.690;6.268;2022-11-14T15:26:53;9.20;99.90
59660;DHT22;45534;52.690;6.268;2022-11-14T15:29:21;9.20;99.90
59660;DHT22;45534;52.690;6.268;2022-11-14T15:31:49;9.20;99.90
59660;DHT22;45534;52.690;6.268;2022-11-14T15:34:24;9.10;99.90
59660;DHT22;45534;52.690;6.268;2022-11-14T15:39:35;9.10;99.90
59660;DHT22;45534;52.690;6.268;2022-11-14T15:44:36;9.10;99.90
59660;DHT22;45534;52.690;6.268;2022-11-14T15:47:02;9.00;99.90
59660;DHT22;45534;52.690;6.268;2022-11-14T15:49:29;9.00;99.90
59660;DHT22;45534;52.690;6.268;2022-11-14T15:51:58;9.00;99.90
59660;DHT22;45534;52.690;6.268;2022-11-14T15:56:51;9.00;99.90
59660;DHT22;45534;52.690;6.268;2022-11-14T15:59:17;9.00;99.90
59660;DHT22;45534;52.690;6.268;2022-11-14T16:01:45;9.00;99.90
59660;DHT22;45534;52.690;6.268;2022-11-14T16:04:32;9.00;99.90
59660;DHT22;45534;52.690;6.268;2022-11-14T16:06:58;9.00;99.90
59660;DHT22;45534;52.690;6.268;2022-11-14T16:09:24;9.00;99.90
59660;DHT22;45534;52.690;6.268;2022-11-14T16:11:50;9.00;99.90
59660;DHT22;45534;52.690;6.268;2022-11-14T16:14:15;8.90;99.90
59660;DHT22;45534;52.690;6.268;2022-11-14T16:16:41;8.90;99.90
59660;DHT22;45534;52.690;6.268;2022-11-14T16:19:08;8.90;99.90
59660;DHT22;45534;52.690;6.268;2022-11-14T16:21:36;8.90;99.90
59660;DHT22;45534;52.690;6.268;2022-11-14T16:24:02;8.90;99.90
59660;DHT22;45534;52.690;6.268;2022-11-14T16:26:27;8.80;99.90
59660;DHT22;45534;52.690;6.268;2022-11-14T16:28:54;8.80;99.90
59660;DHT22;45534;52.690;6.268;2022-11-14T16:31:21;8.80;99.90
59660;DHT22;45534;52.690;6.268;2022-11-14T16:33:47;8.80;99.90
59660;DHT22;45534;52.690;6.268;2022-11-14T16:36:12;8.80;99.90
59660;DHT22;45534;52.690;6.268;2022-11-14T16:38:38;8.80;99.90
59660;DHT22;45534;52.690;6.268;2022-11-14T16:41:08;8.80;99.90
59660;DHT22;45534;52.690;6.268;2022-11-14T16:43:34;8.80;99.90
59660;DHT22;45534;52.690;6.268;2022-11-14T16:46:03;8.80;99.90
59660;DHT22;45534;52.690;6.268;2022-11-14T16:48:29;8.80;99.90
59660;DHT22;45534;52.690;6.268;2022-11-14T16:50:58;8.80;99.90
59660;DHT22;45534;52.690;6.268;2022-11-14T16:53:24;8.80;99.90
59660;DHT22;45534;52.690;6.268;2022-11-14T16:55:49;8.80;99.90
59660;DHT22;45534;52.690;6.268;2022-11-14T16:58:15;8.80;99.90
59660;DHT22;45534;52.690;6.268;2022-11-14T17:00:44;8.80;99.90
59660;DHT22;45534;52.690;6.268;2022-11-14T17:03:09;8.80;99.90
59660;DHT22;45534;52.690;6.268;2022-11-14T17:05:42;8.80;99.90
59660;DHT22;45534;52.690;6.268;2022-11-14T17:08:08;8.80;99.90
59660;DHT22;45534;52.690;6.268;2022-11-14T17:10:39;8.80;99.90
59660;DHT22;45534;52.690;6.268;2022-11-14T17:13:05;8.80;99.90
59660;DHT22;45534;52.690;6.268;2022-11-14T17:15:31;8.80;99.90
59660;DHT22;45534;52.690;6.268;2022-11-14T17:17:57;8.80;99.90
59660;DHT22;45534;52.690;6.268;2022-11-14T17:20:22;8.80;99.90
59660;DHT22;45534;52.690;6.268;2022-11-14T17:22:48;8.80;99.90
59660;DHT22;45534;52.690;6.268;2022-11-14T17:25:14;8.80;99.90
59660;DHT22;45534;52.690;6.268;2022-11-14T17:27:40;8.80;99.90
59660;DHT22;45534;52.690;6.268;2022-11-14T17:30:07;8.80;99.90
59660;DHT22;45534;52.690;6.268;2022-11-14T17:32:34;8.80;99.90
59660;DHT22;45534;52.690;6.268;2022-11-14T17:35:00;8.80;99.90
59660;DHT22;45534;52.690;6.268;2022-11-14T17:37:25;8.80;99.90
59660;DHT22;45534;52.690;6.268;2022-11-14T17:39:51;8.80;99.90
59660;DHT22;45534;52.690;6.268;2022-11-14T17:42:17;8.80;99.90
59660;DHT22;45534;52.690;6.268;2022-11-14T17:44:42;8.80;99.90
59660;DHT22;45534;52.690;6.268;2022-11-14T17:47:08;8.70;99.90
59660;DHT22;45534;52.690;6.268;2022-11-14T17:49:34;8.80;99.90
59660;DHT22;45534;52.690;6.268;2022-11-14T17:51:59;8.80;99.90